Check out our new PWSWeather beta!
PWSweather.com
Personal Weather Stations
Station Observations

MakarauRodneyNZ

Lat: -36.52421, Lon: 174.47572

Elevation: 606

Station Type: Davis VP2

http://kaiparaweather.dynu.net/index.php

High Low Average
Temperature 61.9°F16.6°C 52.8°F11.6°C 56.2°F13.4°C
Dew Point 55.5°F13.1°C 47.6°F8.7°C 51.2°F10.7°C
Winds 20.7 mph 33.3 kmh 2.3 mph 3.7 kmh 10.0 mph WSW16.1 kmh WSW
Wind Gusts 27.6 mph44.4 kmh 5.8 mph9.3 kmh 14.0 mph22.5 kmh
Humidity 94% 71% 83%
Pressure 29.66 in1004.4 mb 29.34 in993.6 mb -
Precipitation 0.21 in5.3 mm - -
Hour Temp Dew Point Humidity Winds Wind Gusts Pressure Precip Precip Rate Daily Precip Total
12:00 AM 56.1°F13.4°C 53.2°F11.8°C 90% 12.7 mph W20.4 kmh W 19.6 mph31.5 kmh 29.34 in993.6 mb - 0.00 in0.0 mm 0.00 in0.0 mm
12:10 AM 56.3°F13.5°C 53.4°F11.9°C 90% 16.1 mph WNW25.9 kmh WNW 23.0 mph37.0 kmh 29.34 in993.6 mb - 0.00 in0.0 mm 0.00 in0.0 mm
12:20 AM 56.3°F13.5°C 53.4°F11.9°C 90% 12.7 mph NW20.4 kmh NW 20.7 mph33.3 kmh 29.35 in993.9 mb - 0.01 in0.3 mm 0.01 in0.3 mm
12:30 AM 56.0°F13.3°C 53.4°F11.9°C 91% 16.1 mph WNW25.9 kmh WNW 19.6 mph31.5 kmh 29.35 in993.9 mb - 0.05 in1.3 mm 0.05 in1.3 mm
12:40 AM 55.6°F13.1°C 53.0°F11.7°C 91% 11.5 mph W18.5 kmh W 21.9 mph35.2 kmh 29.35 in993.9 mb - 0.01 in0.3 mm 0.05 in1.3 mm
12:50 AM 55.1°F12.8°C 52.5°F11.4°C 91% 18.4 mph WNW29.6 kmh WNW 26.5 mph42.6 kmh 29.36 in994.2 mb - 0.00 in0.0 mm 0.05 in1.3 mm
01:00 AM 55.0°F12.8°C 52.4°F11.3°C 91% 15.0 mph WNW24.1 kmh WNW 25.3 mph40.7 kmh 29.36 in994.2 mb - 0.00 in0.0 mm 0.05 in1.3 mm
01:10 AM 55.3°F12.9°C 53.0°F11.7°C 92% 20.7 mph NW33.3 kmh NW 27.6 mph44.4 kmh 29.36 in994.2 mb - 0.00 in0.0 mm 0.05 in1.3 mm
01:20 AM 55.2°F12.9°C 53.0°F11.7°C 92% 11.5 mph WSW18.5 kmh WSW 15.0 mph24.1 kmh 29.36 in994.2 mb - 0.01 in0.3 mm 0.06 in1.5 mm
04:30 AM 54.7°F12.6°C 52.1°F11.2°C 91% 10.4 mph WNW16.7 kmh WNW 19.6 mph31.5 kmh 29.39 in995.3 mb - 0.00 in0.0 mm 0.09 in2.3 mm
04:40 AM 54.6°F12.6°C 52.0°F11.1°C 91% 11.5 mph WNW18.5 kmh WNW 18.4 mph29.6 kmh 29.40 in995.6 mb - 0.00 in0.0 mm 0.09 in2.3 mm
04:50 AM 54.5°F12.5°C 51.9°F11.1°C 91% 10.4 mph WNW16.7 kmh WNW 16.1 mph25.9 kmh 29.40 in995.6 mb - 0.00 in0.0 mm 0.09 in2.3 mm
05:00 AM 54.7°F12.6°C 52.1°F11.2°C 91% 11.5 mph NW18.5 kmh NW 15.0 mph24.1 kmh 29.41 in995.9 mb - 0.00 in0.0 mm 0.09 in2.3 mm
05:10 AM 54.9°F12.7°C 52.3°F11.3°C 91% 10.4 mph WNW16.7 kmh WNW 15.0 mph24.1 kmh 29.41 in995.9 mb - 0.00 in0.0 mm 0.09 in2.3 mm
05:20 AM 55.0°F12.8°C 52.1°F11.2°C 90% 13.8 mph NW22.2 kmh NW 20.7 mph33.3 kmh 29.41 in995.9 mb - 0.01 in0.3 mm 0.10 in2.5 mm
05:30 AM 54.7°F12.6°C 51.8°F11.0°C 90% 15.0 mph WNW24.1 kmh WNW 19.6 mph31.5 kmh 29.42 in996.3 mb - 0.01 in0.3 mm 0.10 in2.5 mm
05:40 AM 54.7°F12.6°C 52.1°F11.2°C 91% 12.7 mph WNW20.4 kmh WNW 19.6 mph31.5 kmh 29.42 in996.3 mb - 0.00 in0.0 mm 0.10 in2.5 mm
05:50 AM 54.8°F12.7°C 51.9°F11.1°C 90% 12.7 mph NW20.4 kmh NW 19.6 mph31.5 kmh 29.42 in996.3 mb - 0.00 in0.0 mm 0.10 in2.5 mm
06:00 AM 55.2°F12.9°C 52.3°F11.3°C 90% 15.0 mph WNW24.1 kmh WNW 19.6 mph31.5 kmh 29.43 in996.6 mb - 0.00 in0.0 mm 0.10 in2.5 mm
06:10 AM 55.2°F12.9°C 52.3°F11.3°C 90% 11.5 mph NW18.5 kmh NW 16.1 mph25.9 kmh 29.43 in996.6 mb - 0.00 in0.0 mm 0.10 in2.5 mm
06:20 AM 55.1°F12.8°C 52.3°F11.3°C 90% 16.1 mph NW25.9 kmh NW 19.6 mph31.5 kmh 29.43 in996.6 mb - 0.00 in0.0 mm 0.10 in2.5 mm
06:30 AM 55.4°F13.0°C 52.5°F11.4°C 90% 12.7 mph NW20.4 kmh NW 19.6 mph31.5 kmh 29.44 in997.0 mb - 0.00 in0.0 mm 0.10 in2.5 mm
06:40 AM 56.0°F13.3°C 52.8°F11.6°C 89% 10.4 mph W16.7 kmh W 17.3 mph27.8 kmh 29.45 in997.3 mb - 0.00 in0.0 mm 0.10 in2.5 mm
06:50 AM 56.2°F13.4°C 52.4°F11.3°C 87% 11.5 mph NW18.5 kmh NW 15.0 mph24.1 kmh 29.45 in997.3 mb - 0.00 in0.0 mm 0.10 in2.5 mm
07:00 AM 55.7°F13.2°C 51.6°F10.9°C 86% 11.5 mph W18.5 kmh W 18.4 mph29.6 kmh 29.45 in997.3 mb - 0.00 in0.0 mm 0.10 in2.5 mm
07:10 AM 55.6°F13.1°C 52.1°F11.2°C 88% 10.4 mph WNW16.7 kmh WNW 17.3 mph27.8 kmh 29.46 in997.6 mb - 0.00 in0.0 mm 0.10 in2.5 mm
07:20 AM 56.3°F13.5°C 52.5°F11.4°C 87% 16.1 mph NW25.9 kmh NW 18.4 mph29.6 kmh 29.46 in997.6 mb - 0.00 in0.0 mm 0.10 in2.5 mm
07:30 AM 56.2°F13.4°C 52.4°F11.3°C 87% 10.4 mph WSW16.7 kmh WSW 18.4 mph29.6 kmh 29.46 in997.6 mb - 0.00 in0.0 mm 0.10 in2.5 mm
07:40 AM 55.7°F13.2°C 52.2°F11.2°C 88% 12.7 mph WNW20.4 kmh WNW 17.3 mph27.8 kmh 29.47 in998.0 mb - 0.00 in0.0 mm 0.10 in2.5 mm
07:50 AM 56.1°F13.4°C 52.6°F11.4°C 88% 11.5 mph WNW18.5 kmh WNW 20.7 mph33.3 kmh 29.47 in998.0 mb - 0.00 in0.0 mm 0.10 in2.5 mm
08:00 AM 56.0°F13.3°C 52.2°F11.2°C 87% 17.3 mph NW27.8 kmh NW 24.2 mph38.9 kmh 29.48 in998.3 mb - 0.00 in0.0 mm 0.10 in2.5 mm
08:10 AM 55.5°F13.1°C 52.0°F11.1°C 88% 10.4 mph WNW16.7 kmh WNW 15.0 mph24.1 kmh 29.48 in998.3 mb - 0.00 in0.0 mm 0.10 in2.5 mm
08:20 AM 54.6°F12.6°C 51.4°F10.8°C 89% 15.0 mph WNW24.1 kmh WNW 20.7 mph33.3 kmh 29.50 in999.0 mb - 0.01 in0.3 mm 0.11 in2.8 mm
08:30 AM 53.8°F12.1°C 50.6°F10.3°C 89% 10.4 mph W16.7 kmh W 16.1 mph25.9 kmh 29.50 in999.0 mb - 0.01 in0.3 mm 0.12 in3.0 mm
08:40 AM 53.2°F11.8°C 50.3°F10.2°C 90% 10.4 mph WSW16.7 kmh WSW 16.1 mph25.9 kmh 29.50 in999.0 mb - 0.01 in0.3 mm 0.13 in3.3 mm
08:50 AM 52.8°F11.6°C 50.2°F10.1°C 91% 6.9 mph WSW11.1 kmh WSW 11.5 mph18.5 kmh 29.51 in999.3 mb - 0.02 in0.5 mm 0.14 in3.6 mm
09:00 AM 53.1°F11.7°C 50.8°F10.4°C 92% 5.8 mph WSW9.3 kmh WSW 9.2 mph14.8 kmh 29.51 in999.3 mb - 0.02 in0.5 mm 0.15 in3.8 mm
09:10 AM 53.4°F11.9°C 51.2°F10.7°C 92% 5.8 mph WSW9.3 kmh WSW 8.1 mph13.0 kmh 29.51 in999.3 mb - 0.01 in0.3 mm 0.16 in4.1 mm
09:20 AM 53.2°F11.8°C 51.0°F10.6°C 92% 9.2 mph WSW14.8 kmh WSW 12.7 mph20.4 kmh 29.51 in999.3 mb - 0.01 in0.3 mm 0.17 in4.3 mm
09:30 AM 53.6°F12.0°C 51.6°F10.9°C 93% 5.8 mph WSW9.3 kmh WSW 11.5 mph18.5 kmh 29.51 in999.3 mb - 0.00 in0.0 mm 0.17 in4.3 mm
09:40 AM 55.4°F13.0°C 53.7°F12.1°C 94% 3.5 mph WSW5.6 kmh WSW 8.1 mph13.0 kmh 29.50 in999.0 mb - 0.00 in0.0 mm 0.17 in4.3 mm
09:50 AM 56.8°F13.8°C 54.8°F12.7°C 93% 2.3 mph W3.7 kmh W 11.5 mph18.5 kmh 29.51 in999.3 mb - 0.00 in0.0 mm 0.17 in4.3 mm
10:00 AM 56.9°F13.8°C 54.9°F12.7°C 93% 12.7 mph NW20.4 kmh NW 16.1 mph25.9 kmh 29.50 in999.0 mb - 0.00 in0.0 mm 0.17 in4.3 mm
10:10 AM 57.7°F14.3°C 54.7°F12.6°C 90% 6.9 mph WSW11.1 kmh WSW 11.5 mph18.5 kmh 29.50 in999.0 mb - 0.00 in0.0 mm 0.17 in4.3 mm
10:20 AM 59.1°F15.1°C 55.5°F13.1°C 88% 5.8 mph WSW9.3 kmh WSW 11.5 mph18.5 kmh 29.50 in999.0 mb - 0.00 in0.0 mm 0.17 in4.3 mm
10:30 AM 60.4°F15.8°C 54.9°F12.7°C 82% 12.7 mph WSW20.4 kmh WSW 18.4 mph29.6 kmh 29.50 in999.0 mb - 0.00 in0.0 mm 0.17 in4.3 mm
10:40 AM 61.2°F16.2°C 55.3°F12.9°C 81% 6.9 mph WSW11.1 kmh WSW 11.5 mph18.5 kmh 29.50 in999.0 mb - 0.00 in0.0 mm 0.17 in4.3 mm
10:50 AM 57.8°F14.3°C 53.0°F11.7°C 84% 9.2 mph WSW14.8 kmh WSW 16.1 mph25.9 kmh 29.50 in999.0 mb - 0.04 in1.0 mm 0.21 in5.3 mm
11:00 AM 57.3°F14.1°C 53.8°F12.1°C 88% 6.9 mph WSW11.1 kmh WSW 8.1 mph13.0 kmh 29.50 in999.0 mb - 0.00 in0.0 mm 0.21 in5.3 mm
11:10 AM 57.7°F14.3°C 53.6°F12.0°C 86% 9.2 mph WSW14.8 kmh WSW 15.0 mph24.1 kmh 29.50 in999.0 mb - 0.00 in0.0 mm 0.21 in5.3 mm
11:20 AM 58.5°F14.7°C 54.0°F12.2°C 85% 10.4 mph WNW16.7 kmh WNW 23.0 mph37.0 kmh 29.50 in999.0 mb - 0.00 in0.0 mm 0.21 in5.3 mm
11:30 AM 60.4°F15.8°C 55.2°F12.9°C 83% 10.4 mph W16.7 kmh W 19.6 mph31.5 kmh 29.50 in999.0 mb - 0.00 in0.0 mm 0.21 in5.3 mm
11:40 AM 55.6°F13.1°C 51.2°F10.7°C 85% 12.7 mph SW20.4 kmh SW 17.3 mph27.8 kmh 29.50 in999.0 mb - 0.00 in0.0 mm 0.21 in5.3 mm
11:50 AM 56.9°F13.8°C 53.7°F12.1°C 89% 4.6 mph WSW7.4 kmh WSW 8.1 mph13.0 kmh 29.50 in999.0 mb - 0.00 in0.0 mm 0.21 in5.3 mm
12:00 PM 56.5°F13.6°C 51.7°F10.9°C 84% 17.3 mph SW27.8 kmh SW 19.6 mph31.5 kmh 29.50 in999.0 mb - 0.00 in0.0 mm 0.21 in5.3 mm
12:10 PM 58.7°F14.8°C 53.9°F12.2°C 84% 10.4 mph WSW16.7 kmh WSW 15.0 mph24.1 kmh 29.50 in999.0 mb - 0.00 in0.0 mm 0.21 in5.3 mm
12:20 PM 58.5°F14.7°C 53.0°F11.7°C 82% 10.4 mph WSW16.7 kmh WSW 16.1 mph25.9 kmh 29.50 in999.0 mb - 0.00 in0.0 mm 0.21 in5.3 mm
12:30 PM 59.1°F15.1°C 53.3°F11.8°C 81% 9.2 mph WSW14.8 kmh WSW 12.7 mph20.4 kmh 29.50 in999.0 mb - 0.00 in0.0 mm 0.21 in5.3 mm
12:40 PM 59.9°F15.5°C 53.3°F11.8°C 79% 8.1 mph WSW13.0 kmh WSW 10.4 mph16.7 kmh 29.50 in999.0 mb - 0.00 in0.0 mm 0.21 in5.3 mm
12:50 PM 59.4°F15.2°C 52.5°F11.4°C 78% 8.1 mph WSW13.0 kmh WSW 11.5 mph18.5 kmh 29.51 in999.3 mb - 0.00 in0.0 mm 0.21 in5.3 mm
01:00 PM 60.2°F15.7°C 52.9°F11.6°C 77% 11.5 mph W18.5 kmh W 23.0 mph37.0 kmh 29.50 in999.0 mb - 0.00 in0.0 mm 0.21 in5.3 mm
01:10 PM 58.3°F14.6°C 52.2°F11.2°C 80% 16.1 mph WSW25.9 kmh WSW 19.6 mph31.5 kmh 29.51 in999.3 mb - 0.00 in0.0 mm 0.21 in5.3 mm
01:20 PM 58.2°F14.6°C 51.7°F10.9°C 79% 10.4 mph WSW16.7 kmh WSW 16.1 mph25.9 kmh 29.51 in999.3 mb - 0.00 in0.0 mm 0.21 in5.3 mm
01:30 PM 58.6°F14.8°C 51.4°F10.8°C 77% 19.6 mph SW31.5 kmh SW 24.2 mph38.9 kmh 29.51 in999.3 mb - 0.00 in0.0 mm 0.21 in5.3 mm
01:40 PM 56.4°F13.6°C 51.0°F10.6°C 82% 11.5 mph WSW18.5 kmh WSW 12.7 mph20.4 kmh 29.51 in999.3 mb - 0.00 in0.0 mm 0.21 in5.3 mm
01:50 PM 57.6°F14.2°C 51.5°F10.8°C 80% 8.1 mph WSW13.0 kmh WSW 10.4 mph16.7 kmh 29.51 in999.3 mb - 0.00 in0.0 mm 0.21 in5.3 mm
02:00 PM 58.3°F14.6°C 51.1°F10.6°C 77% 9.2 mph WSW14.8 kmh WSW 11.5 mph18.5 kmh 29.51 in999.3 mb - 0.00 in0.0 mm 0.21 in5.3 mm
02:10 PM 59.9°F15.5°C 51.9°F11.1°C 75% 11.5 mph SW18.5 kmh SW 15.0 mph24.1 kmh 29.51 in999.3 mb - 0.00 in0.0 mm 0.21 in5.3 mm
02:20 PM 61.4°F16.3°C 52.7°F11.5°C 73% 10.4 mph WSW16.7 kmh WSW 16.1 mph25.9 kmh 29.51 in999.3 mb - 0.00 in0.0 mm 0.21 in5.3 mm
02:30 PM 61.9°F16.6°C 52.3°F11.3°C 71% 10.4 mph WSW16.7 kmh WSW 19.6 mph31.5 kmh 29.51 in999.3 mb - 0.00 in0.0 mm 0.21 in5.3 mm
02:40 PM 61.6°F16.4°C 52.5°F11.4°C 72% 10.4 mph WSW16.7 kmh WSW 15.0 mph24.1 kmh 29.51 in999.3 mb - 0.00 in0.0 mm 0.21 in5.3 mm
02:50 PM 59.4°F15.2°C 50.8°F10.4°C 73% 12.7 mph WSW20.4 kmh WSW 19.6 mph31.5 kmh 29.51 in999.3 mb - 0.00 in0.0 mm 0.21 in5.3 mm
03:00 PM 57.9°F14.4°C 51.0°F10.6°C 78% 9.2 mph WSW14.8 kmh WSW 12.7 mph20.4 kmh 29.51 in999.3 mb - 0.00 in0.0 mm 0.21 in5.3 mm
03:10 PM 58.6°F14.8°C 51.8°F11.0°C 78% 8.1 mph WSW13.0 kmh WSW 11.5 mph18.5 kmh 29.51 in999.3 mb - 0.00 in0.0 mm 0.21 in5.3 mm
03:20 PM 58.7°F14.8°C 51.5°F10.8°C 77% 10.4 mph WSW16.7 kmh WSW 18.4 mph29.6 kmh 29.51 in999.3 mb - 0.00 in0.0 mm 0.21 in5.3 mm
03:30 PM 60.6°F15.9°C 53.0°F11.7°C 76% 15.0 mph SW24.1 kmh SW 20.7 mph33.3 kmh 29.51 in999.3 mb - 0.00 in0.0 mm 0.21 in5.3 mm
03:40 PM 60.0°F15.6°C 51.4°F10.8°C 73% 10.4 mph WSW16.7 kmh WSW 16.1 mph25.9 kmh 29.51 in999.3 mb - 0.00 in0.0 mm 0.21 in5.3 mm
03:50 PM 58.5°F14.7°C 51.7°F10.9°C 78% 8.1 mph W13.0 kmh W 16.1 mph25.9 kmh 29.52 in999.7 mb - 0.00 in0.0 mm 0.21 in5.3 mm
04:00 PM 58.1°F14.5°C 51.6°F10.9°C 79% 8.1 mph WSW13.0 kmh WSW 13.8 mph22.2 kmh 29.52 in999.7 mb - 0.00 in0.0 mm 0.21 in5.3 mm
04:10 PM 57.9°F14.4°C 51.1°F10.6°C 78% 12.7 mph W20.4 kmh W 17.3 mph27.8 kmh 29.52 in999.7 mb - 0.00 in0.0 mm 0.21 in5.3 mm
04:20 PM 57.8°F14.3°C 50.6°F10.3°C 77% 10.4 mph WSW16.7 kmh WSW 12.7 mph20.4 kmh 29.53 in1000.0 mb - 0.00 in0.0 mm 0.21 in5.3 mm
04:30 PM 57.9°F14.4°C 50.7°F10.4°C 77% 10.4 mph W16.7 kmh W 11.5 mph18.5 kmh 29.53 in1000.0 mb - 0.00 in0.0 mm 0.21 in5.3 mm
04:40 PM 57.9°F14.4°C 50.7°F10.4°C 77% 10.4 mph WSW16.7 kmh WSW 13.8 mph22.2 kmh 29.53 in1000.0 mb - 0.00 in0.0 mm 0.21 in5.3 mm
04:50 PM 57.4°F14.1°C 50.2°F10.1°C 77% 6.9 mph WSW11.1 kmh WSW 11.5 mph18.5 kmh 29.54 in1000.3 mb - 0.00 in0.0 mm 0.21 in5.3 mm
05:00 PM 57.6°F14.2°C 50.1°F10.1°C 76% 9.2 mph WSW14.8 kmh WSW 11.5 mph18.5 kmh 29.54 in1000.3 mb - 0.00 in0.0 mm 0.21 in5.3 mm
05:10 PM 57.5°F14.2°C 50.0°F10.0°C 76% 5.8 mph WSW9.3 kmh WSW 12.7 mph20.4 kmh 29.55 in1000.7 mb - 0.00 in0.0 mm 0.21 in5.3 mm
05:20 PM 57.3°F14.1°C 49.8°F9.9°C 76% 6.9 mph WSW11.1 kmh WSW 16.1 mph25.9 kmh 29.55 in1000.7 mb - 0.00 in0.0 mm 0.21 in5.3 mm
05:30 PM 57.3°F14.1°C 50.2°F10.1°C 77% 5.8 mph WSW9.3 kmh WSW 9.2 mph14.8 kmh 29.55 in1000.7 mb - 0.00 in0.0 mm 0.21 in5.3 mm
05:40 PM 57.7°F14.3°C 50.2°F10.1°C 76% 11.5 mph NW18.5 kmh NW 16.1 mph25.9 kmh 29.55 in1000.7 mb - 0.00 in0.0 mm 0.21 in5.3 mm
05:50 PM 57.4°F14.1°C 49.9°F9.9°C 76% 8.1 mph WSW13.0 kmh WSW 11.5 mph18.5 kmh 29.55 in1000.7 mb - 0.00 in0.0 mm 0.21 in5.3 mm
06:00 PM 56.6°F13.7°C 49.5°F9.7°C 77% 8.1 mph WSW13.0 kmh WSW 11.5 mph18.5 kmh 29.56 in1001.0 mb - 0.00 in0.0 mm 0.21 in5.3 mm
06:10 PM 56.5°F13.6°C 49.7°F9.8°C 78% 9.2 mph W14.8 kmh W 15.0 mph24.1 kmh 29.56 in1001.0 mb - 0.00 in0.0 mm 0.21 in5.3 mm
06:20 PM 56.4°F13.6°C 49.6°F9.8°C 78% 4.6 mph WSW7.4 kmh WSW 5.8 mph9.3 kmh 29.56 in1001.0 mb - 0.00 in0.0 mm 0.21 in5.3 mm
06:30 PM 55.7°F13.2°C 49.6°F9.8°C 80% 5.8 mph WSW9.3 kmh WSW 8.1 mph13.0 kmh 29.57 in1001.4 mb - 0.00 in0.0 mm 0.21 in5.3 mm
06:40 PM 55.0°F12.8°C 49.3°F9.6°C 81% 5.8 mph WSW9.3 kmh WSW 9.2 mph14.8 kmh 29.57 in1001.4 mb - 0.00 in0.0 mm 0.21 in5.3 mm
06:50 PM 55.1°F12.8°C 49.7°F9.8°C 82% 5.8 mph WSW9.3 kmh WSW 8.1 mph13.0 kmh 29.57 in1001.4 mb - 0.00 in0.0 mm 0.21 in5.3 mm
07:00 PM 55.2°F12.9°C 49.8°F9.9°C 82% 5.8 mph WSW9.3 kmh WSW 11.5 mph18.5 kmh 29.58 in1001.7 mb - 0.00 in0.0 mm 0.21 in5.3 mm
07:10 PM 55.2°F12.9°C 48.8°F9.3°C 79% 12.7 mph WSW20.4 kmh WSW 15.0 mph24.1 kmh 29.58 in1001.7 mb - 0.00 in0.0 mm 0.21 in5.3 mm
07:20 PM 55.3°F12.9°C 48.9°F9.4°C 79% 4.6 mph WSW7.4 kmh WSW 5.8 mph9.3 kmh 29.59 in1002.0 mb - 0.00 in0.0 mm 0.21 in5.3 mm
07:30 PM 55.4°F13.0°C 49.3°F9.6°C 80% 5.8 mph WSW9.3 kmh WSW 9.2 mph14.8 kmh 29.59 in1002.0 mb - 0.00 in0.0 mm 0.21 in5.3 mm
07:40 PM 55.3°F12.9°C 49.3°F9.6°C 80% 10.4 mph WSW16.7 kmh WSW 13.8 mph22.2 kmh 29.59 in1002.0 mb - 0.00 in0.0 mm 0.21 in5.3 mm
07:50 PM 54.9°F12.7°C 48.9°F9.4°C 80% 10.4 mph SW16.7 kmh SW 16.1 mph25.9 kmh 29.60 in1002.4 mb - 0.00 in0.0 mm 0.21 in5.3 mm
08:00 PM 54.5°F12.5°C 48.1°F8.9°C 79% 8.1 mph WSW13.0 kmh WSW 12.7 mph20.4 kmh 29.60 in1002.4 mb - 0.00 in0.0 mm 0.21 in5.3 mm
08:10 PM 54.2°F12.3°C 47.8°F8.8°C 79% 8.1 mph WSW13.0 kmh WSW 11.5 mph18.5 kmh 29.60 in1002.4 mb - 0.00 in0.0 mm 0.21 in5.3 mm
08:20 PM 54.0°F12.2°C 48.0°F8.9°C 80% 8.1 mph SW13.0 kmh SW 13.8 mph22.2 kmh 29.61 in1002.7 mb - 0.00 in0.0 mm 0.21 in5.3 mm
08:30 PM 54.1°F12.3°C 48.4°F9.1°C 81% 6.9 mph WSW11.1 kmh WSW 8.1 mph13.0 kmh 29.61 in1002.7 mb - 0.00 in0.0 mm 0.21 in5.3 mm
08:40 PM 54.1°F12.3°C 48.7°F9.3°C 82% 5.8 mph WSW9.3 kmh WSW 10.4 mph16.7 kmh 29.62 in1003.0 mb - 0.00 in0.0 mm 0.21 in5.3 mm
08:50 PM 54.4°F12.4°C 49.1°F9.5°C 82% 5.8 mph SW9.3 kmh SW 10.4 mph16.7 kmh 29.62 in1003.0 mb - 0.00 in0.0 mm 0.21 in5.3 mm
09:00 PM 54.7°F12.6°C 49.3°F9.6°C 82% 5.8 mph WSW9.3 kmh WSW 8.1 mph13.0 kmh 29.63 in1003.4 mb - 0.00 in0.0 mm 0.21 in5.3 mm
09:10 PM 54.4°F12.4°C 48.7°F9.3°C 81% 6.9 mph SW11.1 kmh SW 9.2 mph14.8 kmh 29.63 in1003.4 mb - 0.00 in0.0 mm 0.21 in5.3 mm
09:20 PM 54.0°F12.2°C 48.7°F9.3°C 82% 6.9 mph WSW11.1 kmh WSW 11.5 mph18.5 kmh 29.63 in1003.4 mb - 0.00 in0.0 mm 0.21 in5.3 mm
09:30 PM 54.1°F12.3°C 48.7°F9.3°C 82% 9.2 mph SW14.8 kmh SW 12.7 mph20.4 kmh 29.63 in1003.4 mb - 0.00 in0.0 mm 0.21 in5.3 mm
09:40 PM 54.0°F12.2°C 48.6°F9.2°C 82% 10.4 mph WSW16.7 kmh WSW 10.4 mph16.7 kmh 29.63 in1003.4 mb - 0.00 in0.0 mm 0.21 in5.3 mm
09:50 PM 53.6°F12.0°C 48.3°F9.1°C 82% 6.9 mph WSW11.1 kmh WSW 9.2 mph14.8 kmh 29.63 in1003.4 mb - 0.00 in0.0 mm 0.21 in5.3 mm
10:00 PM 53.6°F12.0°C 48.6°F9.2°C 83% 4.6 mph WSW7.4 kmh WSW 8.1 mph13.0 kmh 29.64 in1003.7 mb - 0.00 in0.0 mm 0.21 in5.3 mm
10:10 PM 53.6°F12.0°C 48.9°F9.4°C 84% 4.6 mph W7.4 kmh W 9.2 mph14.8 kmh 29.64 in1003.7 mb - 0.00 in0.0 mm 0.21 in5.3 mm
10:20 PM 53.2°F11.8°C 48.5°F9.2°C 84% 5.8 mph WSW9.3 kmh WSW 9.2 mph14.8 kmh 29.64 in1003.7 mb - 0.00 in0.0 mm 0.21 in5.3 mm
10:30 PM 53.1°F11.7°C 48.1°F8.9°C 83% 6.9 mph SW11.1 kmh SW 11.5 mph18.5 kmh 29.64 in1003.7 mb - 0.00 in0.0 mm 0.21 in5.3 mm
10:40 PM 53.4°F11.9°C 48.0°F8.9°C 82% 5.8 mph SW9.3 kmh SW 9.2 mph14.8 kmh 29.64 in1003.7 mb - 0.00 in0.0 mm 0.21 in5.3 mm
10:50 PM 53.5°F11.9°C 47.8°F8.8°C 81% 4.6 mph WSW7.4 kmh WSW 8.1 mph13.0 kmh 29.65 in1004.1 mb - 0.00 in0.0 mm 0.21 in5.3 mm
11:00 PM 53.7°F12.1°C 48.3°F9.1°C 82% 4.6 mph WSW7.4 kmh WSW 8.1 mph13.0 kmh 29.65 in1004.1 mb - 0.00 in0.0 mm 0.23 in5.8 mm
11:10 PM 53.5°F11.9°C 48.1°F8.9°C 82% 4.6 mph WSW7.4 kmh WSW 5.8 mph9.3 kmh 29.65 in1004.1 mb - 0.00 in0.0 mm 0.23 in5.8 mm
11:20 PM 53.6°F12.0°C 47.9°F8.8°C 81% 4.6 mph WSW7.4 kmh WSW 5.8 mph9.3 kmh 29.65 in1004.1 mb - 0.00 in0.0 mm 0.23 in5.8 mm
11:30 PM 53.5°F11.9°C 47.8°F8.8°C 81% 6.9 mph WSW11.1 kmh WSW 10.4 mph16.7 kmh 29.65 in1004.1 mb - 0.00 in0.0 mm 0.23 in5.8 mm
11:40 PM 53.4°F11.9°C 47.7°F8.7°C 81% 4.6 mph WSW7.4 kmh WSW 8.1 mph13.0 kmh 29.66 in1004.4 mb - 0.00 in0.0 mm 0.23 in5.8 mm
11:50 PM 53.3°F11.8°C 47.6°F8.7°C 81% 5.8 mph WSW9.3 kmh WSW 9.2 mph14.8 kmh 29.66 in1004.4 mb - 0.00 in0.0 mm 0.23 in5.8 mm